METAR Data
IDs: Format: Raw Decoded Include TAF

Data at: 0857 UTC 26 Jan 2020

KPVB 260855Z AUTO 28008KT 10SM SCT009 OVC044 M01/M01 A2993 RMK AO1 T10131015
KPVB 260835Z AUTO 28008KT 10SM BKN009 BKN022 OVC029 M01/M01 A2993 RMK AO1 T10121014
KPVB 260815Z AUTO 29009KT 10SM BKN009 BKN024 OVC029 M01/M01 A2994 RMK AO1 T10101012
KPVB 260755Z AUTO 28009KT 10SM BKN009 OVC024 M01/M01 A2994 RMK AO1 T10101011
KPVB 260735Z AUTO 28011KT 10SM OVC009 M01/M01 A2993 RMK AO1 T10101011
KPVB 260715Z AUTO 28011KT 10SM SCT009 OVC028 M01/M01 A2994 RMK AO1 T10101011
KPVB 260655Z AUTO 28010KT 10SM SCT010 OVC026 M01/M01 A2993 RMK AO1 T10091011
KPVB 260635Z AUTO 27010KT 10SM SCT010 OVC026 M01/M01 A2994 RMK AO1 T10081011
KPVB 260615Z AUTO 27010KT 10SM BKN010 OVC026 M01/M01 A2993 RMK AO1 T10081010
KPVB 260555Z AUTO 27010KT 10SM BKN010 OVC031 M01/M01 A2994 RMK AO1 T10061007 10005 21006 400071006
KPVB 260535Z AUTO 27012KT 10SM SCT010 OVC031 00/M01 A2993 RMK AO1 T10051007
KPVB 260515Z AUTO 27012KT 10SM OVC010 00/00 A2993 RMK AO1 T10031005
KPVB 260455Z AUTO 27011G14KT 10SM OVC010 00/00 A2993 RMK AO1 T10021003
KPVB 260435Z AUTO 28010KT 10SM OVC010 00/00 A2993 RMK AO1 T10021003
KPVB 260415Z AUTO 27010KT 10SM OVC010 00/00 A2993 RMK AO1 T00001001
KPVB 260355Z AUTO 27010KT 10SM OVC012 00/00 A2992 RMK AO1 T00001001
KPVB 260335Z AUTO 27010KT 10SM OVC012 00/00 A2992 RMK AO1 T00000000
KPVB 260315Z AUTO 27010KT 10SM SCT012 OVC034 00/00 A2992 RMK AO1 T00000000
KPVB 260255Z AUTO 27011KT 10SM SCT012 OVC036 00/00 A2991 RMK AO1 T00001001
KPVB 260235Z AUTO 27009KT 10SM OVC038 00/00 A2991 RMK AO1 T00000000
KPVB 260215Z AUTO 27007KT 10SM SCT040 OVC048 00/00 A2991 RMK AO1 T00001001
KPVB 260155Z AUTO 27008KT 10SM BKN019 OVC048 00/00 A2991 RMK AO1 T00000000
KPVB 260135Z AUTO 27008KT 10SM OVC017 00/00 A2990 RMK AO1 T00000000
KPVB 260115Z AUTO 27009KT 10SM OVC017 00/00 A2990 RMK AO1 T00000000
KPVB 260055Z AUTO 28009KT 10SM OVC015 00/00 A2990 RMK AO1 T00000000
KPVB 260035Z AUTO 29008KT 10SM OVC013 00/00 A2990 RMK AO1 T00000000
KPVB 260015Z AUTO 28008KT 10SM OVC015 00/00 A2990 RMK AO1 T00030001
KPVB 252355Z AUTO 29007KT 10SM BKN013 OVC019 01/00 A2990 RMK AO1 T00050001 10007 20004
KPVB 252335Z AUTO 28009KT 10SM SCT013 OVC019 01/00 A2990 RMK AO1 T00050001
KPVB 252315Z AUTO 28009KT 10SM OVC011 01/00 A2988 RMK AO1 T00050002
KPVB 252255Z AUTO 28009KT 10SM OVC011 01/00 A2988 RMK AO1 T00050002
KPVB 252235Z AUTO 28007KT 10SM OVC011 01/00 A2988 RMK AO1 T00050002
KPVB 252215Z AUTO 29008KT 10SM OVC011 01/00 A2987 RMK AO1 T00060002
KPVB 252155Z AUTO 29007KT 10SM OVC011 01/00 A2987 RMK AO1 T00060000
KPVB 252135Z AUTO 29008KT 10SM OVC011 01/00 A2987 RMK AO1 T00050000
KPVB 252115Z AUTO 29008KT 10SM OVC011 01/00 A2986 RMK AO1 T00050001
KPVB 252055Z AUTO 30010KT 5SM BKN013 OVC022 01/00 A2986 RMK AO1 T00050001
KPVB 252035Z AUTO 30009G15KT 5SM OVC013 01/00 A2985 RMK AO1 T00060000
KPVB 252015Z AUTO 29010KT 10SM OVC011 01/00 A2985 RMK AO1 T00061001
KPVB 251955Z AUTO 29010KT 10SM OVC011 01/00 A2985 RMK AO1 T00051001
KPVB 251935Z AUTO 29011KT 10SM OVC011 01/00 A2985 RMK AO1 T00050000
KPVB 251915Z AUTO 28009KT 10SM OVC011 01/00 A2985 RMK AO1 T00050001
KPVB 251855Z AUTO 27010G15KT 10SM OVC011 01/00 A2985 RMK AO1 T00060000
KPVB 251835Z AUTO 29010KT 10SM OVC011 01/00 A2985 RMK AO1 T00060001
KPVB 251815Z AUTO 28009KT 10SM OVC011 01/00 A2985 RMK AO1 T00060002
KPVB 251755Z AUTO 29010KT 10SM OVC011 01/00 A2986 RMK AO1 T00050000 10005 20003
KPVB 251735Z AUTO 29012KT 10SM OVC009 01/00 A2986 RMK AO1 T00050003
KPVB 251715Z AUTO 28010KT 3SM OVC009 00/00 A2987 RMK AO1 T00030003
KPVB 251655Z AUTO 28008KT 5SM OVC009 00/00 A2987 RMK AO1 T00040004
KPVB 251635Z AUTO 28009KT 7SM OVC009 01/01 A2987 RMK AO1 T00050005
KPVB 251615Z AUTO 28008KT 10SM OVC009 01/01 A2986 RMK AO1 T00050005
KPVB 251555Z AUTO 28010KT 10SM OVC009 01/01 A2986 RMK AO1 T00050005
KPVB 251535Z AUTO 28010KT 10SM OVC007 00/00 A2985 RMK AO1 T00040004
KPVB 251515Z AUTO 28009KT 10SM OVC007 01/01 A2986 RMK AO1 T00050005
KPVB 251455Z AUTO 28008KT 7SM OVC007 01/01 A2985 RMK AO1 T00050005
KPVB 251415Z AUTO 29008KT 7SM OVC007 01/01 A2985 RMK AO1 T00050005
KPVB 251355Z AUTO 29007KT 7SM OVC005 01/01 A2985 RMK AO1 T00050005
KPVB 251335Z AUTO 30010KT 7SM OVC005 01/01 A2984 RMK AO1 T00050005
KPVB 251315Z AUTO 29010KT 7SM OVC005 01/01 A2984 RMK AO1 T00050005
KPVB 251255Z AUTO 29009KT 7SM OVC005 01/01 A2983 RMK AO1 T00050005
KPVB 251235Z AUTO 29011KT 7SM OVC003 01/01 A2983 RMK AO1 T00050005
KPVB 251215Z AUTO 29010G14KT 5SM OVC003 01/01 A2982 RMK AO1 T00050005
KPVB 251155Z AUTO 29008KT 5SM OVC003 01/01 A2982 RMK AO1 70001 T00050005 10007 20005
KPVB 251135Z AUTO 29007KT 7SM OVC003 01/01 A2982 RMK AO1 T00060006
KPVB 251115Z AUTO 29007KT 7SM OVC003 01/01 A2982 RMK AO1 T00060006
KPVB 251055Z AUTO 29007KT 5SM OVC003 01/01 A2982 RMK AO1 T00050005
KPVB 251035Z AUTO 28008KT 3SM OVC003 01/01 A2982 RMK AO1 T00050005
KPVB 251015Z AUTO 29007KT 3SM OVC003 01/01 A2981 RMK AO1 T00060006
KPVB 250955Z AUTO 29006KT 3SM OVC003 01/01 A2982 RMK AO1 T00050005
KPVB 250935Z AUTO 30009KT 2 1/2SM OVC003 01/01 A2981 RMK AO1 T00050005
KPVB 250915Z AUTO 30007KT 2 1/2SM OVC003 01/01 A2982 RMK AO1 T00050005
KPVB 250855Z AUTO 30008KT 3SM OVC003 01/01 A2982 RMK AO1 T00060006
KPVB 250835Z AUTO 31009KT 3SM OVC003 01/01 A2982 RMK AO1 T00060006
KPVB 250815Z AUTO 31009KT 2 1/2SM OVC003 01/01 A2981 RMK AO1 T00060006
KPVB 250755Z AUTO 30010KT 2SM OVC003 01/01 A2981 RMK AO1 T00060006
KPVB 250735Z AUTO 30010KT 1 1/2SM OVC003 01/01 A2981 RMK AO1 T00060006
KPVB 250715Z AUTO 30008KT 2 1/2SM OVC003 01/01 A2981 RMK AO1 T00070007
KPVB 250655Z AUTO 30009KT 3SM OVC003 01/01 A2981 RMK AO1 T00070007
KPVB 250635Z AUTO 31009KT 3SM OVC003 01/01 A2981 RMK AO1 T00070007
KPVB 250615Z AUTO 31009KT 4SM OVC003 01/01 A2981 RMK AO1 T00070007
KPVB 250555Z AUTO 31009KT 4SM OVC003 01/01 A2982 RMK AO1 T00070007 10010 20006 400130000
KPVB 250535Z AUTO 31010KT 3SM OVC003 01/01 A2982 RMK AO1 T00060006
KPVB 250515Z AUTO 31009KT 3SM OVC003 01/01 A2982 RMK AO1 T00070007
KPVB 250455Z AUTO 32008KT 4SM OVC003 01/01 A2982 RMK AO1 T00070007
KPVB 250435Z AUTO 31009KT 4SM OVC003 01/01 A2982 RMK AO1 T00070007
KPVB 250415Z AUTO 32008KT 2 1/2SM OVC003 01/01 A2982 RMK AO1 T00060006
KPVB 250355Z AUTO 32008KT 4SM OVC005 01/01 A2982 RMK AO1 T00070007
KPVB 250335Z AUTO 32008KT 5SM OVC005 01/01 A2983 RMK AO1 T00070007
KPVB 250315Z AUTO 32008KT 5SM OVC005 01/01 A2983 RMK AO1 T00080008
KPVB 250255Z AUTO 33006KT 7SM OVC007 01/01 A2984 RMK AO1 T00080008
KPVB 250235Z AUTO 34006KT 5SM OVC005 01/01 A2984 RMK AO1 T00080008
KPVB 250215Z AUTO 34006KT 4SM OVC003 01/01 A2984 RMK AO1 T00070007
KPVB 250155Z AUTO 33006KT 3SM OVC003 01/01 A2983 RMK AO1 T00060006
KPVB 250135Z AUTO 33008KT 2 1/2SM OVC005 01/01 A2983 RMK AO1 T00060006
KPVB 250115Z AUTO 34007KT 3SM OVC005 01/01 A2983 RMK AO1 T00060006
KPVB 250055Z AUTO 33006KT 2 1/2SM OVC005 01/01 A2983 RMK AO1 T00070007
KPVB 250035Z AUTO 34006KT 2 1/2SM OVC005 01/01 A2984 RMK AO1 T00070007
KPVB 250015Z AUTO 35007KT 4SM OVC005 01/01 A2984 RMK AO1 T00080008
KPVB 242355Z AUTO 35007KT 5SM OVC005 01/01 A2983 RMK AO1 T00100010 10013 20010
KPVB 242335Z AUTO 35007KT 5SM OVC005 01/01 A2983 RMK AO1 T00100010
KPVB 242315Z AUTO 35008KT 5SM OVC005 01/01 A2982 RMK AO1 T00100010
KPVB 242255Z AUTO 35009KT 5SM OVC005 01/01 A2983 RMK AO1 T00100010
KPVB 242235Z AUTO 36010KT 5SM OVC005 01/01 A2983 RMK AO1 T00110011
KPVB 242215Z AUTO 35010KT 5SM OVC005 01/01 A2982 RMK AO1 T00110011
KPVB 242155Z AUTO 35010KT 5SM OVC005 01/01 A2982 RMK AO1 T00110011
KPVB 242135Z AUTO 36010KT 5SM OVC005 01/01 A2982 RMK AO1 T00110011
KPVB 242115Z AUTO 36010KT 4SM OVC005 01/01 A2982 RMK AO1 T00110011